sensor_id;sensor_type;location;lat;lon;timestamp;P1;durP1;ratioP1;P2;durP2;ratioP2
14770;SDS011;7477;45.222;5.688;2023-03-24T00:00:34;8.32;;;4.22;;
14770;SDS011;7477;45.222;5.688;2023-03-24T00:03:54;7.25;;;4.18;;
14770;SDS011;7477;45.222;5.688;2023-03-24T00:07:13;6.18;;;4.32;;
14770;SDS011;7477;45.222;5.688;2023-03-24T00:10:33;5.30;;;4.32;;
14770;SDS011;7477;45.222;5.688;2023-03-24T00:13:54;7.32;;;4.30;;
14770;SDS011;7477;45.222;5.688;2023-03-24T00:17:16;4.53;;;4.00;;
14770;SDS011;7477;45.222;5.688;2023-03-24T00:20:35;6.38;;;4.72;;
14770;SDS011;7477;45.222;5.688;2023-03-24T00:23:55;11.52;;;4.40;;
14770;SDS011;7477;45.222;5.688;2023-03-24T00:27:16;8.90;;;4.32;;
14770;SDS011;7477;45.222;5.688;2023-03-24T00:30:36;5.60;;;4.07;;
14770;SDS011;7477;45.222;5.688;2023-03-24T00:33:55;8.35;;;4.47;;
14770;SDS011;7477;45.222;5.688;2023-03-24T00:37:14;5.93;;;4.78;;
14770;SDS011;7477;45.222;5.688;2023-03-24T00:40:33;6.82;;;4.15;;
14770;SDS011;7477;45.222;5.688;2023-03-24T00:43:54;6.63;;;4.70;;
14770;SDS011;7477;45.222;5.688;2023-03-24T00:47:16;8.20;;;4.50;;
14770;SDS011;7477;45.222;5.688;2023-03-24T00:50:35;5.50;;;4.78;;
14770;SDS011;7477;45.222;5.688;2023-03-24T00:53:54;7.57;;;4.70;;
14770;SDS011;7477;45.222;5.688;2023-03-24T00:57:16;4.95;;;4.43;;
14770;SDS011;7477;45.222;5.688;2023-03-24T01:00:44;6.05;;;4.45;;
14770;SDS011;7477;45.222;5.688;2023-03-24T01:04:04;5.80;;;3.75;;
14770;SDS011;7477;45.222;5.688;2023-03-24T01:07:25;6.68;;;3.85;;
14770;SDS011;7477;45.222;5.688;2023-03-24T01:10:47;8.07;;;4.10;;
14770;SDS011;7477;45.222;5.688;2023-03-24T01:14:13;11.63;;;4.13;;
14770;SDS011;7477;45.222;5.688;2023-03-24T01:17:33;5.28;;;4.10;;
14770;SDS011;7477;45.222;5.688;2023-03-24T01:20:52;7.60;;;4.07;;
14770;SDS011;7477;45.222;5.688;2023-03-24T01:24:11;6.50;;;3.97;;
14770;SDS011;7477;45.222;5.688;2023-03-24T01:27:31;8.60;;;4.18;;
14770;SDS011;7477;45.222;5.688;2023-03-24T01:30:51;7.03;;;4.30;;
14770;SDS011;7477;45.222;5.688;2023-03-24T01:34:12;7.40;;;4.32;;
14770;SDS011;7477;45.222;5.688;2023-03-24T01:37:31;8.75;;;4.32;;
14770;SDS011;7477;45.222;5.688;2023-03-24T01:40:50;6.68;;;3.92;;
14770;SDS011;7477;45.222;5.688;2023-03-24T01:47:53;5.60;;;3.47;;
14770;SDS011;7477;45.222;5.688;2023-03-24T01:51:33;5.57;;;3.50;;
14770;SDS011;7477;45.222;5.688;2023-03-24T01:54:56;9.77;;;4.15;;
14770;SDS011;7477;45.222;5.688;2023-03-24T01:58:27;9.48;;;4.15;;
14770;SDS011;7477;45.222;5.688;2023-03-24T02:01:48;4.72;;;3.70;;
14770;SDS011;7477;45.222;5.688;2023-03-24T02:05:10;4.38;;;3.80;;
14770;SDS011;7477;45.222;5.688;2023-03-24T02:11:54;7.22;;;3.90;;
14770;SDS011;7477;45.222;5.688;2023-03-24T02:15:15;6.35;;;3.85;;
14770;SDS011;7477;45.222;5.688;2023-03-24T02:33:29;4.32;;;3.20;;
14770;SDS011;7477;45.222;5.688;2023-03-24T02:52:10;7.53;;;3.80;;
14770;SDS011;7477;45.222;5.688;2023-03-24T02:55:52;4.68;;;3.58;;
14770;SDS011;7477;45.222;5.688;2023-03-24T02:59:25;5.20;;;3.72;;
14770;SDS011;7477;45.222;5.688;2023-03-24T03:02:57;3.90;;;3.20;;
14770;SDS011;7477;45.222;5.688;2023-03-24T03:06:26;5.93;;;3.20;;
14770;SDS011;7477;45.222;5.688;2023-03-24T03:09:56;4.10;;;3.15;;
14770;SDS011;7477;45.222;5.688;2023-03-24T03:13:25;3.50;;;3.20;;
14770;SDS011;7477;45.222;5.688;2023-03-24T03:16:53;6.22;;;3.67;;
14770;SDS011;7477;45.222;5.688;2023-03-24T03:20:20;6.78;;;3.78;;
14770;SDS011;7477;45.222;5.688;2023-03-24T03:23:44;5.25;;;3.50;;
14770;SDS011;7477;45.222;5.688;2023-03-24T03:27:19;7.65;;;4.13;;
14770;SDS011;7477;45.222;5.688;2023-03-24T03:30:41;6.47;;;3.33;;
14770;SDS011;7477;45.222;5.688;2023-03-24T03:34:10;4.32;;;3.20;;
14770;SDS011;7477;45.222;5.688;2023-03-24T03:38:12;3.67;;;3.00;;
14770;SDS011;7477;45.222;5.688;2023-03-24T03:41:50;7.90;;;3.92;;
14770;SDS011;7477;45.222;5.688;2023-03-24T03:45:10;6.00;;;3.78;;
14770;SDS011;7477;45.222;5.688;2023-03-24T03:48:30;4.88;;;3.20;;
14770;SDS011;7477;45.222;5.688;2023-03-24T03:51:51;5.97;;;3.20;;
14770;SDS011;7477;45.222;5.688;2023-03-24T03:55:13;5.47;;;3.47;;
14770;SDS011;7477;45.222;5.688;2023-03-24T03:58:32;5.28;;;3.60;;
14770;SDS011;7477;45.222;5.688;2023-03-24T04:01:52;4.03;;;3.35;;
14770;SDS011;7477;45.222;5.688;2023-03-24T04:08:55;4.85;;;3.30;;
14770;SDS011;7477;45.222;5.688;2023-03-24T04:23:27;5.25;;;2.80;;
14770;SDS011;7477;45.222;5.688;2023-03-24T04:27:10;4.50;;;2.92;;
14770;SDS011;7477;45.222;5.688;2023-03-24T04:37:48;5.95;;;2.67;;
14770;SDS011;7477;45.222;5.688;2023-03-24T04:41:07;4.30;;;2.33;;
14770;SDS011;7477;45.222;5.688;2023-03-24T04:44:27;4.75;;;2.35;;
14770;SDS011;7477;45.222;5.688;2023-03-24T04:47:52;2.83;;;2.50;;
14770;SDS011;7477;45.222;5.688;2023-03-24T04:51:15;4.35;;;2.20;;
14770;SDS011;7477;45.222;5.688;2023-03-24T04:54:36;7.65;;;2.58;;
14770;SDS011;7477;45.222;5.688;2023-03-24T04:57:55;3.40;;;2.40;;
14770;SDS011;7477;45.222;5.688;2023-03-24T05:01:15;3.72;;;1.90;;
14770;SDS011;7477;45.222;5.688;2023-03-24T05:04:35;5.88;;;2.15;;
14770;SDS011;7477;45.222;5.688;2023-03-24T05:07:54;4.03;;;2.38;;
14770;SDS011;7477;45.222;5.688;2023-03-24T05:11:14;3.30;;;1.60;;
14770;SDS011;7477;45.222;5.688;2023-03-24T05:14:35;5.53;;;2.22;;
14770;SDS011;7477;45.222;5.688;2023-03-24T05:17:54;3.10;;;2.33;;
14770;SDS011;7477;45.222;5.688;2023-03-24T05:21:14;3.63;;;1.70;;
14770;SDS011;7477;45.222;5.688;2023-03-24T05:24:33;3.40;;;2.10;;
14770;SDS011;7477;45.222;5.688;2023-03-24T05:27:52;2.10;;;1.90;;
14770;SDS011;7477;45.222;5.688;2023-03-24T05:31:11;1.70;;;1.60;;
14770;SDS011;7477;45.222;5.688;2023-03-24T05:34:31;6.05;;;1.88;;
14770;SDS011;7477;45.222;5.688;2023-03-24T05:37:50;4.25;;;2.17;;
14770;SDS011;7477;45.222;5.688;2023-03-24T05:41:10;8.50;;;2.72;;
14770;SDS011;7477;45.222;5.688;2023-03-24T05:44:29;2.35;;;1.77;;
14770;SDS011;7477;45.222;5.688;2023-03-24T05:47:48;2.85;;;1.88;;
14770;SDS011;7477;45.222;5.688;2023-03-24T05:51:08;3.38;;;1.75;;
14770;SDS011;7477;45.222;5.688;2023-03-24T05:54:28;4.35;;;2.10;;
14770;SDS011;7477;45.222;5.688;2023-03-24T05:57:48;2.85;;;1.90;;
14770;SDS011;7477;45.222;5.688;2023-03-24T06:01:07;5.75;;;2.03;;
14770;SDS011;7477;45.222;5.688;2023-03-24T06:04:28;2.40;;;1.90;;
14770;SDS011;7477;45.222;5.688;2023-03-24T06:07:48;2.83;;;1.83;;
14770;SDS011;7477;45.222;5.688;2023-03-24T06:11:07;7.97;;;2.35;;
14770;SDS011;7477;45.222;5.688;2023-03-24T06:14:26;4.53;;;2.55;;
14770;SDS011;7477;45.222;5.688;2023-03-24T06:17:47;5.82;;;2.65;;
14770;SDS011;7477;45.222;5.688;2023-03-24T06:21:07;3.58;;;2.33;;
14770;SDS011;7477;45.222;5.688;2023-03-24T06:24:26;2.85;;;2.47;;
14770;SDS011;7477;45.222;5.688;2023-03-24T06:27:46;6.07;;;3.17;;
14770;SDS011;7477;45.222;5.688;2023-03-24T06:31:05;5.45;;;3.20;;
14770;SDS011;7477;45.222;5.688;2023-03-24T06:34:25;7.47;;;2.80;;
14770;SDS011;7477;45.222;5.688;2023-03-24T06:37:46;4.65;;;2.45;;
14770;SDS011;7477;45.222;5.688;2023-03-24T06:41:05;4.25;;;2.65;;
14770;SDS011;7477;45.222;5.688;2023-03-24T06:44:25;10.30;;;4.35;;
14770;SDS011;7477;45.222;5.688;2023-03-24T06:47:45;4.85;;;3.40;;
14770;SDS011;7477;45.222;5.688;2023-03-24T06:51:04;6.20;;;2.88;;
14770;SDS011;7477;45.222;5.688;2023-03-24T06:54:23;5.60;;;3.20;;
14770;SDS011;7477;45.222;5.688;2023-03-24T06:57:43;3.40;;;2.90;;
14770;SDS011;7477;45.222;5.688;2023-03-24T07:01:03;6.45;;;3.20;;
14770;SDS011;7477;45.222;5.688;2023-03-24T07:04:22;5.75;;;4.72;;
14770;SDS011;7477;45.222;5.688;2023-03-24T07:07:43;4.53;;;2.88;;
14770;SDS011;7477;45.222;5.688;2023-03-24T07:11:03;6.13;;;2.53;;
14770;SDS011;7477;45.222;5.688;2023-03-24T07:14:24;11.68;;;2.92;;
14770;SDS011;7477;45.222;5.688;2023-03-24T07:17:44;3.63;;;2.30;;
14770;SDS011;7477;45.222;5.688;2023-03-24T07:21:03;3.72;;;2.67;;
14770;SDS011;7477;45.222;5.688;2023-03-24T07:24:23;7.82;;;3.10;;
14770;SDS011;7477;45.222;5.688;2023-03-24T07:27:43;7.18;;;3.80;;
14770;SDS011;7477;45.222;5.688;2023-03-24T07:31:02;6.82;;;2.72;;
14770;SDS011;7477;45.222;5.688;2023-03-24T07:34:24;5.82;;;2.88;;
14770;SDS011;7477;45.222;5.688;2023-03-24T07:37:43;6.65;;;3.10;;
14770;SDS011;7477;45.222;5.688;2023-03-24T07:41:04;9.38;;;3.70;;
14770;SDS011;7477;45.222;5.688;2023-03-24T07:44:24;10.43;;;8.73;;
14770;SDS011;7477;45.222;5.688;2023-03-24T07:47:44;11.30;;;4.88;;
14770;SDS011;7477;45.222;5.688;2023-03-24T07:51:04;6.50;;;3.30;;
14770;SDS011;7477;45.222;5.688;2023-03-24T07:54:24;7.28;;;2.65;;
14770;SDS011;7477;45.222;5.688;2023-03-24T07:57:47;3.95;;;2.88;;
14770;SDS011;7477;45.222;5.688;2023-03-24T08:01:07;5.45;;;2.42;;
14770;SDS011;7477;45.222;5.688;2023-03-24T08:04:30;6.10;;;4.22;;
14770;SDS011;7477;45.222;5.688;2023-03-24T08:07:51;2.67;;;2.20;;
14770;SDS011;7477;45.222;5.688;2023-03-24T08:11:13;5.75;;;3.15;;
14770;SDS011;7477;45.222;5.688;2023-03-24T08:14:32;5.60;;;2.47;;
14770;SDS011;7477;45.222;5.688;2023-03-24T08:17:51;4.55;;;2.75;;
14770;SDS011;7477;45.222;5.688;2023-03-24T08:21:11;5.30;;;2.75;;
14770;SDS011;7477;45.222;5.688;2023-03-24T08:24:30;5.50;;;3.65;;
14770;SDS011;7477;45.222;5.688;2023-03-24T08:27:49;9.02;;;3.67;;
14770;SDS011;7477;45.222;5.688;2023-03-24T08:31:09;5.18;;;3.13;;
14770;SDS011;7477;45.222;5.688;2023-03-24T08:34:29;4.05;;;3.00;;
14770;SDS011;7477;45.222;5.688;2023-03-24T08:37:49;4.75;;;2.92;;
14770;SDS011;7477;45.222;5.688;2023-03-24T08:41:09;5.25;;;2.90;;
14770;SDS011;7477;45.222;5.688;2023-03-24T08:44:28;4.10;;;2.53;;
14770;SDS011;7477;45.222;5.688;2023-03-24T08:47:48;3.10;;;2.30;;
14770;SDS011;7477;45.222;5.688;2023-03-24T08:51:13;3.50;;;2.40;;
14770;SDS011;7477;45.222;5.688;2023-03-24T08:54:34;3.63;;;2.88;;
14770;SDS011;7477;45.222;5.688;2023-03-24T08:57:54;3.80;;;2.33;;
14770;SDS011;7477;45.222;5.688;2023-03-24T09:01:13;6.55;;;3.35;;
14770;SDS011;7477;45.222;5.688;2023-03-24T09:04:33;6.13;;;2.70;;
14770;SDS011;7477;45.222;5.688;2023-03-24T09:07:53;8.38;;;2.95;;
14770;SDS011;7477;45.222;5.688;2023-03-24T09:11:17;4.18;;;2.42;;
14770;SDS011;7477;45.222;5.688;2023-03-24T09:14:38;3.88;;;2.70;;
14770;SDS011;7477;45.222;5.688;2023-03-24T09:17:57;5.95;;;2.70;;
14770;SDS011;7477;45.222;5.688;2023-03-24T09:21:16;4.50;;;2.58;;
14770;SDS011;7477;45.222;5.688;2023-03-24T09:24:36;3.53;;;2.50;;
14770;SDS011;7477;45.222;5.688;2023-03-24T09:27:55;4.95;;;3.00;;
14770;SDS011;7477;45.222;5.688;2023-03-24T09:31:15;4.00;;;2.17;;
14770;SDS011;7477;45.222;5.688;2023-03-24T09:34:35;4.88;;;2.40;;
14770;SDS011;7477;45.222;5.688;2023-03-24T09:37:55;4.43;;;2.10;;
14770;SDS011;7477;45.222;5.688;2023-03-24T09:41:20;6.85;;;2.40;;
14770;SDS011;7477;45.222;5.688;2023-03-24T09:44:47;4.35;;;2.60;;
14770;SDS011;7477;45.222;5.688;2023-03-24T09:48:12;3.92;;;2.47;;
14770;SDS011;7477;45.222;5.688;2023-03-24T09:51:45;5.03;;;2.63;;
14770;SDS011;7477;45.222;5.688;2023-03-24T09:55:09;3.03;;;1.85;;
14770;SDS011;7477;45.222;5.688;2023-03-24T09:58:32;6.10;;;1.98;;
14770;SDS011;7477;45.222;5.688;2023-03-24T10:01:51;5.35;;;2.20;;
14770;SDS011;7477;45.222;5.688;2023-03-24T10:05:15;3.25;;;1.80;;
14770;SDS011;7477;45.222;5.688;2023-03-24T10:08:41;7.72;;;2.38;;
14770;SDS011;7477;45.222;5.688;2023-03-24T10:12:16;2.75;;;2.00;;
14770;SDS011;7477;45.222;5.688;2023-03-24T10:15:57;5.07;;;2.10;;
14770;SDS011;7477;45.222;5.688;2023-03-24T10:27:05;3.05;;;1.98;;
14770;SDS011;7477;45.222;5.688;2023-03-24T10:30:51;6.18;;;2.00;;
14770;SDS011;7477;45.222;5.688;2023-03-24T10:34:14;2.00;;;1.80;;
14770;SDS011;7477;45.222;5.688;2023-03-24T10:37:35;3.10;;;2.05;;
14770;SDS011;7477;45.222;5.688;2023-03-24T10:40:55;4.95;;;2.88;;
14770;SDS011;7477;45.222;5.688;2023-03-24T10:44:14;5.68;;;2.55;;
14770;SDS011;7477;45.222;5.688;2023-03-24T10:47:35;5.57;;;2.88;;
14770;SDS011;7477;45.222;5.688;2023-03-24T10:50:55;5.28;;;2.65;;
14770;SDS011;7477;45.222;5.688;2023-03-24T10:54:18;5.80;;;2.60;;
14770;SDS011;7477;45.222;5.688;2023-03-24T10:57:38;6.68;;;2.95;;
14770;SDS011;7477;45.222;5.688;2023-03-24T11:01:01;4.53;;;2.58;;
14770;SDS011;7477;45.222;5.688;2023-03-24T11:04:24;3.35;;;2.35;;
14770;SDS011;7477;45.222;5.688;2023-03-24T11:07:45;3.40;;;2.60;;
14770;SDS011;7477;45.222;5.688;2023-03-24T11:11:14;3.55;;;2.30;;
14770;SDS011;7477;45.222;5.688;2023-03-24T11:14:49;3.97;;;2.35;;
14770;SDS011;7477;45.222;5.688;2023-03-24T11:21:29;4.00;;;2.42;;
14770;SDS011;7477;45.222;5.688;2023-03-24T11:24:51;3.78;;;2.45;;
14770;SDS011;7477;45.222;5.688;2023-03-24T11:28:14;4.63;;;2.42;;
14770;SDS011;7477;45.222;5.688;2023-03-24T11:31:36;3.47;;;2.67;;
14770;SDS011;7477;45.222;5.688;2023-03-24T11:35:01;3.58;;;2.63;;
14770;SDS011;7477;45.222;5.688;2023-03-24T11:38:29;5.55;;;2.22;;
14770;SDS011;7477;45.222;5.688;2023-03-24T11:45:36;5.35;;;2.60;;
14770;SDS011;7477;45.222;5.688;2023-03-24T11:48:59;5.13;;;2.75;;
14770;SDS011;7477;45.222;5.688;2023-03-24T11:52:21;4.18;;;2.42;;
14770;SDS011;7477;45.222;5.688;2023-03-24T12:06:29;10.43;;;3.20;;
14770;SDS011;7477;45.222;5.688;2023-03-24T12:13:47;5.50;;;2.72;;
14770;SDS011;7477;45.222;5.688;2023-03-24T12:17:10;5.35;;;3.22;;
14770;SDS011;7477;45.222;5.688;2023-03-24T12:20:38;5.93;;;3.00;;
14770;SDS011;7477;45.222;5.688;2023-03-24T12:24:27;4.95;;;2.90;;
14770;SDS011;7477;45.222;5.688;2023-03-24T12:31:36;6.43;;;3.25;;
14770;SDS011;7477;45.222;5.688;2023-03-24T12:35:13;8.45;;;3.60;;
14770;SDS011;7477;45.222;5.688;2023-03-24T12:42:13;4.72;;;2.75;;
14770;SDS011;7477;45.222;5.688;2023-03-24T12:49:19;2.95;;;2.55;;
14770;SDS011;7477;45.222;5.688;2023-03-24T12:56:47;4.07;;;2.45;;
14770;SDS011;7477;45.222;5.688;2023-03-24T13:00:23;2.72;;;2.30;;
14770;SDS011;7477;45.222;5.688;2023-03-24T13:04:17;4.03;;;3.05;;
14770;SDS011;7477;45.222;5.688;2023-03-24T13:07:48;7.40;;;3.15;;
14770;SDS011;7477;45.222;5.688;2023-03-24T13:11:11;4.88;;;2.70;;
14770;SDS011;7477;45.222;5.688;2023-03-24T13:18:23;3.17;;;2.28;;
14770;SDS011;7477;45.222;5.688;2023-03-24T13:22:00;4.97;;;2.28;;
14770;SDS011;7477;45.222;5.688;2023-03-24T13:25:44;3.58;;;2.63;;
14770;SDS011;7477;45.222;5.688;2023-03-24T13:29:23;4.53;;;2.50;;
14770;SDS011;7477;45.222;5.688;2023-03-24T13:33:02;3.22;;;2.17;;
14770;SDS011;7477;45.222;5.688;2023-03-24T13:36:41;4.82;;;2.67;;
14770;SDS011;7477;45.222;5.688;2023-03-24T13:40:09;5.28;;;3.30;;
14770;SDS011;7477;45.222;5.688;2023-03-24T13:43:44;5.10;;;3.38;;
14770;SDS011;7477;45.222;5.688;2023-03-24T13:47:11;4.32;;;3.17;;
14770;SDS011;7477;45.222;5.688;2023-03-24T13:50:33;6.40;;;3.80;;
14770;SDS011;7477;45.222;5.688;2023-03-24T13:57:56;10.40;;;3.58;;
14770;SDS011;7477;45.222;5.688;2023-03-24T14:01:32;6.93;;;3.45;;
14770;SDS011;7477;45.222;5.688;2023-03-24T14:05:03;6.45;;;3.38;;
14770;SDS011;7477;45.222;5.688;2023-03-24T14:15:25;6.40;;;3.63;;
14770;SDS011;7477;45.222;5.688;2023-03-24T14:18:46;8.38;;;4.15;;
14770;SDS011;7477;45.222;5.688;2023-03-24T14:25:33;7.47;;;4.22;;
14770;SDS011;7477;45.222;5.688;2023-03-24T14:28:55;5.68;;;3.80;;
14770;SDS011;7477;45.222;5.688;2023-03-24T14:32:18;8.18;;;4.38;;
14770;SDS011;7477;45.222;5.688;2023-03-24T14:35:42;5.40;;;4.03;;
14770;SDS011;7477;45.222;5.688;2023-03-24T14:45:53;10.63;;;4.72;;
14770;SDS011;7477;45.222;5.688;2023-03-24T14:49:23;5.72;;;3.65;;
14770;SDS011;7477;45.222;5.688;2023-03-24T14:52:47;5.80;;;3.47;;
14770;SDS011;7477;45.222;5.688;2023-03-24T14:56:11;8.35;;;5.60;;
14770;SDS011;7477;45.222;5.688;2023-03-24T14:59:42;4.43;;;3.28;;
14770;SDS011;7477;45.222;5.688;2023-03-24T15:03:31;8.43;;;4.20;;
14770;SDS011;7477;45.222;5.688;2023-03-24T15:06:55;5.20;;;4.00;;
14770;SDS011;7477;45.222;5.688;2023-03-24T15:10:16;5.15;;;3.75;;
14770;SDS011;7477;45.222;5.688;2023-03-24T15:17:20;6.53;;;3.80;;
14770;SDS011;7477;45.222;5.688;2023-03-24T15:20:41;6.18;;;3.47;;
14770;SDS011;7477;45.222;5.688;2023-03-24T15:27:49;10.88;;;2.72;;
14770;SDS011;7477;45.222;5.688;2023-03-24T15:31:09;7.13;;;5.25;;
14770;SDS011;7477;45.222;5.688;2023-03-24T15:34:36;7.25;;;4.03;;
14770;SDS011;7477;45.222;5.688;2023-03-24T15:37:58;6.43;;;3.35;;
14770;SDS011;7477;45.222;5.688;2023-03-24T15:41:19;7.80;;;3.15;;
14770;SDS011;7477;45.222;5.688;2023-03-24T15:44:40;6.65;;;4.25;;
14770;SDS011;7477;45.222;5.688;2023-03-24T15:48:07;4.75;;;3.20;;
14770;SDS011;7477;45.222;5.688;2023-03-24T15:51:45;6.53;;;3.65;;
14770;SDS011;7477;45.222;5.688;2023-03-24T15:58:47;3.95;;;3.08;;
14770;SDS011;7477;45.222;5.688;2023-03-24T16:05:46;6.70;;;3.22;;
14770;SDS011;7477;45.222;5.688;2023-03-24T16:09:12;4.05;;;2.92;;
14770;SDS011;7477;45.222;5.688;2023-03-24T16:12:34;9.38;;;4.20;;
14770;SDS011;7477;45.222;5.688;2023-03-24T16:16:06;4.72;;;2.97;;
14770;SDS011;7477;45.222;5.688;2023-03-24T16:19:31;4.13;;;3.33;;
14770;SDS011;7477;45.222;5.688;2023-03-24T16:22:51;6.22;;;3.30;;
14770;SDS011;7477;45.222;5.688;2023-03-24T16:29:40;5.35;;;2.38;;
14770;SDS011;7477;45.222;5.688;2023-03-24T16:33:00;8.30;;;2.70;;
14770;SDS011;7477;45.222;5.688;2023-03-24T16:36:20;6.18;;;3.10;;
14770;SDS011;7477;45.222;5.688;2023-03-24T16:39:40;8.20;;;2.92;;
14770;SDS011;7477;45.222;5.688;2023-03-24T16:43:00;7.10;;;2.22;;
14770;SDS011;7477;45.222;5.688;2023-03-24T16:46:21;5.45;;;3.03;;
14770;SDS011;7477;45.222;5.688;2023-03-24T16:49:51;5.45;;;3.03;;
14770;SDS011;7477;45.222;5.688;2023-03-24T16:53:10;2.85;;;2.45;;
14770;SDS011;7477;45.222;5.688;2023-03-24T16:56:30;6.32;;;3.35;;
14770;SDS011;7477;45.222;5.688;2023-03-24T16:59:49;5.65;;;3.00;;
14770;SDS011;7477;45.222;5.688;2023-03-24T17:03:09;4.47;;;3.20;;
14770;SDS011;7477;45.222;5.688;2023-03-24T17:06:31;6.35;;;3.10;;
14770;SDS011;7477;45.222;5.688;2023-03-24T17:09:51;5.50;;;2.80;;
14770;SDS011;7477;45.222;5.688;2023-03-24T17:13:28;5.18;;;2.40;;
14770;SDS011;7477;45.222;5.688;2023-03-24T17:16:47;5.28;;;2.88;;
14770;SDS011;7477;45.222;5.688;2023-03-24T17:20:08;3.20;;;2.67;;
14770;SDS011;7477;45.222;5.688;2023-03-24T17:23:28;7.88;;;2.40;;
14770;SDS011;7477;45.222;5.688;2023-03-24T17:26:47;2.70;;;1.75;;
14770;SDS011;7477;45.222;5.688;2023-03-24T17:30:07;5.18;;;3.13;;
14770;SDS011;7477;45.222;5.688;2023-03-24T17:33:33;5.15;;;2.92;;
14770;SDS011;7477;45.222;5.688;2023-03-24T17:36:52;6.43;;;3.42;;
14770;SDS011;7477;45.222;5.688;2023-03-24T17:40:12;7.05;;;3.17;;
14770;SDS011;7477;45.222;5.688;2023-03-24T17:43:33;5.60;;;3.15;;
14770;SDS011;7477;45.222;5.688;2023-03-24T17:46:52;5.43;;;3.90;;
14770;SDS011;7477;45.222;5.688;2023-03-24T17:50:11;4.97;;;2.88;;
14770;SDS011;7477;45.222;5.688;2023-03-24T17:53:32;4.13;;;2.42;;
14770;SDS011;7477;45.222;5.688;2023-03-24T17:56:51;4.47;;;3.13;;
14770;SDS011;7477;45.222;5.688;2023-03-24T18:00:11;5.95;;;3.10;;
14770;SDS011;7477;45.222;5.688;2023-03-24T18:03:32;5.20;;;3.47;;
14770;SDS011;7477;45.222;5.688;2023-03-24T18:06:53;6.43;;;4.13;;
14770;SDS011;7477;45.222;5.688;2023-03-24T18:10:13;7.43;;;3.70;;
14770;SDS011;7477;45.222;5.688;2023-03-24T18:13:33;10.95;;;5.57;;
14770;SDS011;7477;45.222;5.688;2023-03-24T18:16:52;5.43;;;4.15;;
14770;SDS011;7477;45.222;5.688;2023-03-24T18:20:11;8.93;;;5.50;;
14770;SDS011;7477;45.222;5.688;2023-03-24T18:23:33;9.05;;;5.40;;
14770;SDS011;7477;45.222;5.688;2023-03-24T18:26:52;6.55;;;5.10;;
14770;SDS011;7477;45.222;5.688;2023-03-24T18:30:12;16.45;;;9.32;;
14770;SDS011;7477;45.222;5.688;2023-03-24T18:33:32;25.90;;;13.68;;
14770;SDS011;7477;45.222;5.688;2023-03-24T18:36:51;27.40;;;14.07;;
14770;SDS011;7477;45.222;5.688;2023-03-24T18:40:10;21.25;;;11.85;;
14770;SDS011;7477;45.222;5.688;2023-03-24T18:43:30;17.42;;;9.68;;
14770;SDS011;7477;45.222;5.688;2023-03-24T18:46:58;8.82;;;6.18;;
14770;SDS011;7477;45.222;5.688;2023-03-24T18:50:17;13.07;;;7.60;;
14770;SDS011;7477;45.222;5.688;2023-03-24T18:53:36;13.85;;;8.73;;
14770;SDS011;7477;45.222;5.688;2023-03-24T18:56:56;9.98;;;4.63;;
14770;SDS011;7477;45.222;5.688;2023-03-24T19:00:15;9.00;;;6.15;;
14770;SDS011;7477;45.222;5.688;2023-03-24T19:03:37;6.40;;;5.38;;
14770;SDS011;7477;45.222;5.688;2023-03-24T19:06:59;24.70;;;15.80;;
14770;SDS011;7477;45.222;5.688;2023-03-24T19:10:18;12.60;;;9.20;;
14770;SDS011;7477;45.222;5.688;2023-03-24T19:13:37;11.15;;;6.30;;
14770;SDS011;7477;45.222;5.688;2023-03-24T19:16:57;4.88;;;4.43;;
14770;SDS011;7477;45.222;5.688;2023-03-24T19:20:19;7.15;;;5.38;;
14770;SDS011;7477;45.222;5.688;2023-03-24T19:23:38;15.52;;;10.52;;
14770;SDS011;7477;45.222;5.688;2023-03-24T19:26:58;9.48;;;7.45;;
14770;SDS011;7477;45.222;5.688;2023-03-24T19:30:17;9.32;;;6.05;;
14770;SDS011;7477;45.222;5.688;2023-03-24T19:33:37;7.90;;;6.18;;
14770;SDS011;7477;45.222;5.688;2023-03-24T19:36:56;14.95;;;8.80;;
14770;SDS011;7477;45.222;5.688;2023-03-24T19:40:15;15.82;;;8.68;;
14770;SDS011;7477;45.222;5.688;2023-03-24T19:43:34;10.95;;;7.03;;
14770;SDS011;7477;45.222;5.688;2023-03-24T19:46:54;9.35;;;7.78;;
14770;SDS011;7477;45.222;5.688;2023-03-24T19:50:14;14.60;;;8.93;;
14770;SDS011;7477;45.222;5.688;2023-03-24T19:53:34;13.60;;;8.90;;
14770;SDS011;7477;45.222;5.688;2023-03-24T19:56:54;10.40;;;8.07;;
14770;SDS011;7477;45.222;5.688;2023-03-24T20:00:13;11.55;;;9.73;;
14770;SDS011;7477;45.222;5.688;2023-03-24T20:03:33;9.32;;;7.68;;
14770;SDS011;7477;45.222;5.688;2023-03-24T20:06:54;11.98;;;7.88;;
14770;SDS011;7477;45.222;5.688;2023-03-24T20:10:13;13.63;;;8.43;;
14770;SDS011;7477;45.222;5.688;2023-03-24T20:13:32;11.88;;;9.63;;
14770;SDS011;7477;45.222;5.688;2023-03-24T20:16:51;16.40;;;8.38;;
14770;SDS011;7477;45.222;5.688;2023-03-24T20:20:12;17.30;;;7.88;;
14770;SDS011;7477;45.222;5.688;2023-03-24T20:23:32;14.77;;;8.27;;
14770;SDS011;7477;45.222;5.688;2023-03-24T20:26:51;14.10;;;8.70;;
14770;SDS011;7477;45.222;5.688;2023-03-24T20:30:11;14.30;;;7.95;;
14770;SDS011;7477;45.222;5.688;2023-03-24T20:33:31;16.40;;;10.65;;
14770;SDS011;7477;45.222;5.688;2023-03-24T20:36:50;52.63;;;29.92;;
14770;SDS011;7477;45.222;5.688;2023-03-24T20:40:09;45.47;;;27.40;;
14770;SDS011;7477;45.222;5.688;2023-03-24T20:43:29;35.95;;;21.88;;
14770;SDS011;7477;45.222;5.688;2023-03-24T20:46:53;44.85;;;26.10;;
14770;SDS011;7477;45.222;5.688;2023-03-24T20:50:14;73.38;;;33.35;;
14770;SDS011;7477;45.222;5.688;2023-03-24T20:53:34;61.50;;;27.10;;
14770;SDS011;7477;45.222;5.688;2023-03-24T20:56:53;51.50;;;26.15;;
14770;SDS011;7477;45.222;5.688;2023-03-24T21:00:13;16.67;;;10.80;;
14770;SDS011;7477;45.222;5.688;2023-03-24T21:03:33;13.30;;;10.35;;
14770;SDS011;7477;45.222;5.688;2023-03-24T21:06:53;14.15;;;11.55;;
14770;SDS011;7477;45.222;5.688;2023-03-24T21:10:12;13.77;;;10.65;;
14770;SDS011;7477;45.222;5.688;2023-03-24T21:13:32;22.42;;;15.40;;
14770;SDS011;7477;45.222;5.688;2023-03-24T21:16:51;21.00;;;12.70;;
14770;SDS011;7477;45.222;5.688;2023-03-24T21:20:11;15.52;;;12.23;;
14770;SDS011;7477;45.222;5.688;2023-03-24T21:23:31;16.80;;;12.02;;
14770;SDS011;7477;45.222;5.688;2023-03-24T21:26:56;16.63;;;13.52;;
14770;SDS011;7477;45.222;5.688;2023-03-24T21:30:15;17.77;;;13.88;;
14770;SDS011;7477;45.222;5.688;2023-03-24T21:33:38;15.25;;;10.95;;
14770;SDS011;7477;45.222;5.688;2023-03-24T21:36:58;13.95;;;10.27;;
14770;SDS011;7477;45.222;5.688;2023-03-24T21:40:19;19.67;;;13.23;;
14770;SDS011;7477;45.222;5.688;2023-03-24T21:43:41;20.15;;;13.75;;
14770;SDS011;7477;45.222;5.688;2023-03-24T21:47:04;16.42;;;12.38;;
14770;SDS011;7477;45.222;5.688;2023-03-24T21:50:26;18.40;;;11.82;;
14770;SDS011;7477;45.222;5.688;2023-03-24T21:53:46;14.25;;;11.27;;
14770;SDS011;7477;45.222;5.688;2023-03-24T21:57:05;21.88;;;16.50;;
14770;SDS011;7477;45.222;5.688;2023-03-24T22:00:25;20.58;;;15.73;;
14770;SDS011;7477;45.222;5.688;2023-03-24T22:03:47;17.45;;;13.15;;
14770;SDS011;7477;45.222;5.688;2023-03-24T22:07:12;21.08;;;13.60;;
14770;SDS011;7477;45.222;5.688;2023-03-24T22:10:32;20.65;;;14.82;;
14770;SDS011;7477;45.222;5.688;2023-03-24T22:13:52;17.23;;;12.60;;
14770;SDS011;7477;45.222;5.688;2023-03-24T22:17:12;13.60;;;10.38;;
14770;SDS011;7477;45.222;5.688;2023-03-24T22:20:31;10.90;;;8.85;;
14770;SDS011;7477;45.222;5.688;2023-03-24T22:23:51;14.23;;;9.52;;
14770;SDS011;7477;45.222;5.688;2023-03-24T22:27:10;14.15;;;8.45;;
14770;SDS011;7477;45.222;5.688;2023-03-24T22:30:30;14.68;;;9.20;;
14770;SDS011;7477;45.222;5.688;2023-03-24T22:33:50;19.42;;;11.23;;
14770;SDS011;7477;45.222;5.688;2023-03-24T22:37:09;15.43;;;9.23;;
14770;SDS011;7477;45.222;5.688;2023-03-24T22:40:29;20.25;;;12.65;;
14770;SDS011;7477;45.222;5.688;2023-03-24T22:43:48;14.07;;;11.23;;
14770;SDS011;7477;45.222;5.688;2023-03-24T22:47:08;15.32;;;10.30;;
14770;SDS011;7477;45.222;5.688;2023-03-24T22:50:27;26.27;;;20.00;;
14770;SDS011;7477;45.222;5.688;2023-03-24T22:53:46;17.55;;;11.45;;
14770;SDS011;7477;45.222;5.688;2023-03-24T22:57:06;15.77;;;11.18;;
14770;SDS011;7477;45.222;5.688;2023-03-24T23:00:25;24.42;;;15.93;;